»·PEaware :: AAL1187 KOAK-KSNA

AAL1187 :: KOAK-KSNA

FLIGHT INFORMATION

Flight Status: Arrived
Operator:
American Airlines
More flights by this operator :: More flights under this callsign
Pilot: Anonymous 12254 (12254)
Aircraft: BOEING 737-800
(B738)
More flights by this aircraft type
Origin: KOAK Metro Oakland Intl
United States
Destination: KSNA John Wayne-Orange Co
United States
More flights between these airports :: More routes between these airports
Route: +SKYL9 FLW TANDY5
File this flight plan on PilotEdge
Remarks:
Altitude:
(Current/Filed)
22,000ft
Speed:
(Current/Filed)
300kts
Departed: 26-Apr-19 03:03 PM
Arrived: 26-Apr-19 04:10 PM
Distance/Time
Traveled:
322nm/1:07
Distance/Time
To Go:
Arrived

Flight Plot

Page will automatically refresh every two minutes.

Flight plan parsing failed; only flown route is shown


Map Options




Map Legend


Flown Route
Filed Route
Departure Airport
Arrival Airport
Navaid (VOR, NDB)
Fix

Horizontal Profiles

Position Reports

Time Latitude Longitude Heading Altitude Ground
Speed
26-Apr-19 14:40 37.709853 -122.213040 148 12ft 0kts
26-Apr-19 14:41 37.709853 -122.213040 148 12ft 0kts
26-Apr-19 14:42 37.709853 -122.213040 148 12ft 0kts
26-Apr-19 14:43 37.709853 -122.213040 148 12ft 0kts
26-Apr-19 14:44 37.709853 -122.213040 148 12ft 0kts
26-Apr-19 14:45 37.709853 -122.213040 148 12ft 0kts
26-Apr-19 14:46 37.709853 -122.213040 148 12ft 0kts
26-Apr-19 14:47 37.709853 -122.213040 148 12ft 0kts
26-Apr-19 14:47 37.709853 -122.213040 148 12ft 0kts
26-Apr-19 14:49 37.709853 -122.213040 148 12ft 0kts
26-Apr-19 14:50 37.709853 -122.213040 148 12ft 0kts
26-Apr-19 14:50 37.709853 -122.213040 148 12ft 0kts
26-Apr-19 14:51 37.709853 -122.213040 148 12ft 0kts
26-Apr-19 14:52 37.709765 -122.213205 268 12ft 4kts
26-Apr-19 14:53 37.709610 -122.214857 224 12ft 0kts
26-Apr-19 14:54 37.709610 -122.214857 224 12ft 0kts
26-Apr-19 14:55 37.709610 -122.214857 224 12ft 0kts
26-Apr-19 14:56 37.709610 -122.214857 224 12ft 0kts
26-Apr-19 14:57 37.709610 -122.214857 224 12ft 0kts
26-Apr-19 14:58 37.709610 -122.214857 224 12ft 0kts
26-Apr-19 14:59 37.707231 -122.217404 218 12ft 22kts
26-Apr-19 15:00 37.702569 -122.213496 179 12ft 6kts
26-Apr-19 15:01 37.702145 -122.215206 307 12ft 37kts
26-Apr-19 15:02 37.734186 -122.262555 309 938ft 244kts
26-Apr-19 15:03 37.778888 -122.329221 309 1990ft 248kts
26-Apr-19 15:04 37.823902 -122.396349 309 1992ft 248kts
26-Apr-19 15:05 37.813202 -122.476350 243 4001ft 258kts
26-Apr-19 15:06 37.779869 -122.557834 243 6954ft 266kts
26-Apr-19 15:07 37.731248 -122.623313 179 9972ft 288kts
26-Apr-19 15:08 37.668739 -122.556251 143 12995ft 313kts
26-Apr-19 15:09 37.586156 -122.517628 162 16029ft 326kts
26-Apr-19 15:10 37.497771 -122.477998 161 18930ft 351kts
26-Apr-19 15:11 37.425792 -122.378963 131 19053ft 398kts
26-Apr-19 15:12 37.353676 -122.271654 131 20224ft 406kts
26-Apr-19 15:13 37.279138 -122.161058 131 22233ft 422kts
26-Apr-19 15:14 37.202249 -122.047366 132 22998ft 426kts
26-Apr-19 15:15 37.125254 -121.933912 132 23041ft 423kts
26-Apr-19 15:16 37.048168 -121.820766 131 23059ft 436kts
26-Apr-19 15:17 36.965332 -121.710835 141 23055ft 431kts
26-Apr-19 15:18 36.872090 -121.616201 141 23039ft 431kts
26-Apr-19 15:19 36.778761 -121.521722 141 23021ft 432kts
26-Apr-19 15:20 36.685122 -121.427235 141 23027ft 431kts
26-Apr-19 15:21 36.593266 -121.334837 141 23027ft 431kts
26-Apr-19 15:22 36.499363 -121.240689 141 23031ft 431kts
26-Apr-19 15:23 36.405848 -121.147194 142 23031ft 433kts
26-Apr-19 15:24 36.311940 -121.053637 142 23001ft 431kts
26-Apr-19 15:25 36.218465 -120.960814 143 22976ft 428kts
26-Apr-19 15:26 36.125076 -120.868391 143 22972ft 428kts
26-Apr-19 15:27 36.031791 -120.776345 143 22972ft 428kts
26-Apr-19 15:28 35.938320 -120.684394 143 22972ft 428kts
26-Apr-19 15:29 35.846291 -120.594143 143 22974ft 428kts
26-Apr-19 15:30 35.752750 -120.502681 143 22974ft 428kts
26-Apr-19 15:31 35.659263 -120.411560 143 22974ft 428kts
26-Apr-19 15:32 35.567199 -120.322093 144 22972ft 428kts
26-Apr-19 15:33 35.473619 -120.231431 144 22987ft 427kts
26-Apr-19 15:34 35.380441 -120.141432 144 23032ft 425kts
26-Apr-19 15:35 35.287067 -120.051522 144 23052ft 424kts
26-Apr-19 15:36 35.193865 -119.962045 144 23049ft 425kts
26-Apr-19 15:37 35.100512 -119.872682 144 23020ft 426kts
26-Apr-19 15:38 35.010539 -119.777975 141 22651ft 422kts
26-Apr-19 15:39 34.922942 -119.685302 140 22071ft 409kts
26-Apr-19 15:40 34.840671 -119.598475 140 21293ft 398kts
26-Apr-19 15:41 34.758049 -119.511507 140 20502ft 393kts
26-Apr-19 15:42 34.675298 -119.424660 139 19698ft 389kts
26-Apr-19 15:43 34.593641 -119.339190 140 18894ft 384kts
26-Apr-19 15:44 34.514312 -119.256360 140 18106ft 380kts
26-Apr-19 15:45 34.434213 -119.172964 139 17301ft 377kts
26-Apr-19 15:46 34.354880 -119.090579 139 16434ft 373kts
26-Apr-19 15:47 34.276208 -119.009068 139 15526ft 369kts
26-Apr-19 15:48 34.198253 -118.928526 140 14619ft 367kts
26-Apr-19 15:49 34.120203 -118.848107 140 14022ft 367kts
26-Apr-19 15:50 34.041152 -118.768358 149 14001ft 369kts
26-Apr-19 15:51 33.954087 -118.733607 163 14020ft 368kts
26-Apr-19 15:52 33.856709 -118.698116 163 14017ft 368kts
26-Apr-19 15:53 33.758184 -118.662290 163 14014ft 368kts
26-Apr-19 15:54 33.659364 -118.627251 164 13112ft 363kts
26-Apr-19 15:55 33.567697 -118.581169 145 11597ft 356kts
26-Apr-19 15:56 33.488758 -118.510615 127 10054ft 350kts
26-Apr-19 15:57 33.482064 -118.398351 81 8545ft 345kts
26-Apr-19 15:58 33.495038 -118.288545 82 7084ft 340kts
26-Apr-19 15:59 33.508626 -118.177014 82 5570ft 333kts
26-Apr-19 16:00 33.521721 -118.074526 82 5001ft 275kts
26-Apr-19 16:01 33.533573 -117.983276 81 5005ft 277kts
26-Apr-19 16:02 33.554381 -117.895612 42 5024ft 277kts
26-Apr-19 16:03 33.611504 -117.832368 41 5000ft 277kts
26-Apr-19 16:04 33.668768 -117.768793 41 4786ft 280kts
26-Apr-19 16:05 33.731130 -117.719800 346 3291ft 267kts
26-Apr-19 16:06 33.746037 -117.781991 224 2998ft 205kts
26-Apr-19 16:07 33.710092 -117.833661 247 1836ft 209kts
26-Apr-19 16:08 33.675330 -117.869050 209 65ft 90kts
26-Apr-19 16:09 33.669711 -117.870314 41 64ft 9kts
26-Apr-19 16:10 33.671488 -117.868553 33 64ft 7kts
26-Apr-19 16:11 33.673630 -117.866795 32 64ft 11kts
26-Apr-19 16:12 33.675012 -117.865104 115 64ft 0kts
26-Apr-19 16:13 33.675012 -117.865104 115 64ft 0kts
26-Apr-19 16:14 33.675012 -117.865104 115 64ft 0kts
26-Apr-19 16:15 33.675012 -117.865104 115 64ft 0kts
26-Apr-19 16:16 33.675012 -117.865104 115 64ft 0kts
26-Apr-19 16:17 33.675012 -117.865104 115 64ft 0kts
26-Apr-19 16:18 33.675012 -117.865104 115 64ft 0kts

Navigation Log

Ident Type
Flight plan parsing failed, navigation log unavailable